createdAt,value
2023-03-10T06:49:34.215Z,2.30
2023-03-10T06:52:36.155Z,2.70
2023-03-10T06:55:38.189Z,4.20
2023-03-10T06:58:41.466Z,5.65
2023-03-10T07:01:43.711Z,2.55
2023-03-10T07:04:46.305Z,2.17
2023-03-10T07:07:48.488Z,3.17
2023-03-10T07:10:51.959Z,1.67
2023-03-10T07:13:54.969Z,2.05
2023-03-10T07:16:58.543Z,2.63
2023-03-10T07:20:01.239Z,2.50
2023-03-10T07:23:04.047Z,3.13
2023-03-10T07:26:10.672Z,2.30
2023-03-10T07:29:12.985Z,3.08
2023-03-10T07:32:16.232Z,1.27
2023-03-10T07:35:18.596Z,2.30
2023-03-10T07:38:20.522Z,1.67
2023-03-10T07:41:22.906Z,1.63
2023-03-10T07:44:24.684Z,1.90
2023-03-10T07:47:26.562Z,3.15
2023-03-10T07:50:28.463Z,4.25
2023-03-10T07:53:30.827Z,3.63
2023-03-10T07:56:32.618Z,3.00
2023-03-10T07:59:34.490Z,4.10
2023-03-10T08:02:36.821Z,1.27
2023-03-10T08:05:46.671Z,4.43
2023-03-10T08:08:49.079Z,2.50
2023-03-10T08:11:51.018Z,9.95
2023-03-10T08:14:53.316Z,1.88
2023-03-10T08:17:55.108Z,3.47
2023-03-10T08:20:57.667Z,6.70
2023-03-10T08:23:59.551Z,9.45
2023-03-10T08:27:01.631Z,16.50
2023-03-10T08:30:03.483Z,17.17
2023-03-10T08:33:08.335Z,10.25
2023-03-10T08:36:14.100Z,11.45
2023-03-10T08:39:16.807Z,13.43
2023-03-10T08:42:18.567Z,16.83
2023-03-10T08:45:21.386Z,11.80
2023-03-10T08:48:23.515Z,7.72
2023-03-10T08:51:29.315Z,9.32
2023-03-10T08:54:32.706Z,8.88
2023-03-10T08:57:35.320Z,14.35
2023-03-10T09:00:40.116Z,11.20
2023-03-10T09:03:48.473Z,7.70
2023-03-10T09:06:58.181Z,13.77
2023-03-10T09:10:05.063Z,8.07
2023-03-10T09:13:14.028Z,8.45
2023-03-10T09:16:22.043Z,9.52
2023-03-10T09:19:28.264Z,12.05
2023-03-10T09:22:36.961Z,11.93
2023-03-10T09:25:41.952Z,7.65
2023-03-10T09:28:44.423Z,12.40
2023-03-10T09:31:48.505Z,6.95
2023-03-10T09:34:53.343Z,2.60
2023-03-10T09:37:55.366Z,1.58
2023-03-10T09:41:03.485Z,3.33
2023-03-10T09:44:15.753Z,5.13
2023-03-10T09:47:39.819Z,4.10
2023-03-10T09:50:47.258Z,4.00
2023-03-10T09:54:16.692Z,6.65
2023-03-10T09:57:25.652Z,2.95
2023-03-10T10:00:42.586Z,5.47
2023-03-10T10:03:53.722Z,4.38
2023-03-10T10:06:59.916Z,6.07
2023-03-10T10:10:27.990Z,2.28
2023-03-10T10:13:37.313Z,2.90
2023-03-10T10:16:49.537Z,5.43
2023-03-10T10:19:54.022Z,6.25
2023-03-10T10:22:56.060Z,24.65
2023-03-10T10:26:10.632Z,9.55
2023-03-10T10:29:37.079Z,11.40
2023-03-10T10:32:59.560Z,6.97
2023-03-10T10:36:05.362Z,4.28
2023-03-10T10:39:28.007Z,2.50
2023-03-10T10:42:34.280Z,2.90
2023-03-10T10:45:38.159Z,2.00
2023-03-10T10:48:48.729Z,1.05
2023-03-10T10:52:06.957Z,0.82
2023-03-10T10:55:26.899Z,0.82
2023-03-10T10:58:36.237Z,4.95
2023-03-10T11:01:57.264Z,2.00
2023-03-10T11:05:24.394Z,1.27
2023-03-10T11:08:38.143Z,2.28
2023-03-10T11:11:59.623Z,3.15
2023-03-10T11:15:24.926Z,2.28
2023-03-10T11:18:39.087Z,1.52
2023-03-10T11:21:45.501Z,2.88
2023-03-10T11:25:26.669Z,2.75
2023-03-10T11:28:50.677Z,1.60
2023-03-10T11:32:32.584Z,1.50
2023-03-10T11:35:49.326Z,4.20
2023-03-10T11:38:58.329Z,0.93
2023-03-10T11:42:26.281Z,2.53
2023-03-10T11:45:39.520Z,1.63
2023-03-10T11:49:08.548Z,2.90
2023-03-10T11:52:21.235Z,1.52
2023-03-10T11:55:24.040Z,2.03
2023-03-10T11:58:53.033Z,1.40
2023-03-10T12:02:00.374Z,2.20
2023-03-10T12:05:15.941Z,1.80
2023-03-10T12:11:25.404Z,2.35
2023-03-10T12:14:27.350Z,1.95
2023-03-10T12:17:29.578Z,4.65
2023-03-10T12:20:33.101Z,1.33
2023-03-10T12:23:56.415Z,1.98
2023-03-10T12:27:01.301Z,1.65
2023-03-10T12:30:43.092Z,1.52
2023-03-10T12:33:45.917Z,1.25
2023-03-10T12:36:50.812Z,2.35
2023-03-10T12:39:52.493Z,0.93
2023-03-10T12:42:54.212Z,3.50
2023-03-10T12:46:00.573Z,1.35
2023-03-10T12:49:11.507Z,1.60
2023-03-10T12:52:27.455Z,1.27
2023-03-10T12:55:29.726Z,1.13
2023-03-10T12:58:34.268Z,1.08
2023-03-10T13:01:55.518Z,1.65
2023-03-10T13:05:06.670Z,0.65
2023-03-10T13:08:27.963Z,1.95
2023-03-10T13:11:37.916Z,1.05
2023-03-10T13:14:42.055Z,3.90
2023-03-10T13:17:43.716Z,1.33
2023-03-10T13:20:46.918Z,1.05
2023-03-10T13:23:48.648Z,2.35
2023-03-10T13:27:10.673Z,1.95
2023-03-10T13:30:24.259Z,1.00
2023-03-10T13:33:27.671Z,0.32
2023-03-10T13:36:37.773Z,0.75
2023-03-10T13:39:42.641Z,1.08
2023-03-10T13:42:48.115Z,1.08
2023-03-10T13:45:57.151Z,1.02
2023-03-10T13:49:14.408Z,0.95
2023-03-10T13:52:21.895Z,1.40
2023-03-10T13:55:24.299Z,2.05
2023-03-10T13:58:26.776Z,3.58
2023-03-10T14:01:32.649Z,2.88
2023-03-10T14:04:51.932Z,0.63
2023-03-10T14:08:00.665Z,1.85
2023-03-10T14:11:32.105Z,3.58
2023-03-10T14:14:36.537Z,4.20
2023-03-10T14:17:39.420Z,1.33
2023-03-10T14:20:43.949Z,3.63
2023-03-10T14:23:45.955Z,1.42
2023-03-10T14:26:47.986Z,3.38
2023-03-10T14:29:53.984Z,3.50
2023-03-10T14:32:58.290Z,0.90
2023-03-10T14:36:00.030Z,5.97
2023-03-10T14:39:02.008Z,0.98
2023-03-10T14:42:04.727Z,1.20
2023-03-10T14:45:34.042Z,1.55
2023-03-10T14:48:39.888Z,0.60
2023-03-10T14:51:41.777Z,0.68
2023-03-10T14:54:44.388Z,0.52
2023-03-10T14:57:48.171Z,1.52
2023-03-10T15:00:53.767Z,1.20
2023-03-10T15:03:55.431Z,1.35
2023-03-10T15:06:57.185Z,0.88
2023-03-10T15:10:10.604Z,1.02
2023-03-10T15:13:15.694Z,0.63
2023-03-10T15:16:17.475Z,0.75
2023-03-10T15:19:27.503Z,1.13
2023-03-10T15:22:29.252Z,4.43
2023-03-10T15:25:31.169Z,3.63
2023-03-10T15:28:32.974Z,6.57
2023-03-10T15:31:34.833Z,1.73
2023-03-10T15:34:37.550Z,5.00
2023-03-10T15:37:39.422Z,3.53
2023-03-10T15:40:42.168Z,7.18
2023-03-10T15:43:43.992Z,4.53
2023-03-10T15:46:46.657Z,6.72
2023-03-10T15:49:48.519Z,7.80
2023-03-10T15:52:53.844Z,9.45
2023-03-10T15:55:56.300Z,7.60
2023-03-10T15:58:58.191Z,12.55
2023-03-10T16:02:00.038Z,9.02
2023-03-10T16:05:01.953Z,7.20
2023-03-10T16:08:07.728Z,12.95
2023-03-10T16:11:18.808Z,9.00
2023-03-10T16:14:20.547Z,15.55
2023-03-10T16:17:23.674Z,8.25
2023-03-10T16:20:25.563Z,12.15
2023-03-10T16:23:28.651Z,12.18
2023-03-10T16:26:30.513Z,9.05
2023-03-10T16:29:32.292Z,14.05
2023-03-10T16:32:34.159Z,12.07
2023-03-10T16:35:38.568Z,13.40
2023-03-10T16:38:40.529Z,10.65
2023-03-10T16:41:42.650Z,18.13
2023-03-10T16:44:44.423Z,16.30
2023-03-10T16:47:47.400Z,10.73
2023-03-10T16:50:50.156Z,4.07
2023-03-10T16:53:53.319Z,6.68
2023-03-10T16:57:01.399Z,7.22
2023-03-10T17:00:05.414Z,8.10
